createdAt,value
2018-07-27T00:01:13.291Z,7.40
2018-07-27T00:03:41.351Z,7.47
2018-07-27T00:06:09.423Z,5.73
2018-07-27T00:08:37.935Z,5.83
2018-07-27T00:11:06.020Z,6.47
2018-07-27T00:13:34.308Z,6.43
2018-07-27T00:16:02.510Z,6.10
2018-07-27T00:18:30.768Z,5.43
2018-07-27T00:20:58.863Z,5.57
2018-07-27T00:23:26.930Z,5.87
2018-07-27T00:25:55.011Z,5.70
2018-07-27T00:28:23.106Z,6.23
2018-07-27T00:30:51.191Z,8.07
2018-07-27T00:33:19.272Z,8.30
2018-07-27T00:35:47.350Z,7.00
2018-07-27T00:38:15.415Z,5.47
2018-07-27T00:40:43.507Z,6.93
2018-07-27T00:43:11.575Z,5.50
2018-07-27T00:45:39.654Z,9.17
2018-07-27T00:48:07.727Z,6.33
2018-07-27T00:50:35.831Z,7.20
2018-07-27T00:53:03.910Z,6.03
2018-07-27T00:55:32.183Z,5.90
2018-07-27T00:58:00.237Z,5.20
2018-07-27T01:00:28.335Z,8.33
2018-07-27T01:02:56.495Z,5.10
2018-07-27T01:05:24.564Z,9.40
2018-07-27T01:07:52.642Z,6.17
2018-07-27T01:10:20.702Z,7.10
2018-07-27T01:12:48.755Z,5.67
2018-07-27T01:15:16.826Z,8.20
2018-07-27T01:17:44.899Z,4.77
2018-07-27T01:20:12.963Z,5.13
2018-07-27T01:22:41.054Z,6.77
2018-07-27T01:25:09.116Z,6.80
2018-07-27T01:27:37.174Z,6.17
2018-07-27T01:30:06.484Z,7.63
2018-07-27T01:32:34.579Z,7.50
2018-07-27T01:35:02.631Z,5.90
2018-07-27T01:37:30.706Z,5.60
2018-07-27T01:39:58.764Z,5.50
2018-07-27T01:42:26.822Z,5.43
2018-07-27T01:44:54.904Z,5.47
2018-07-27T01:47:23.242Z,7.20
2018-07-27T01:49:51.306Z,6.30
2018-07-27T01:52:19.366Z,5.87
2018-07-27T01:54:47.446Z,5.27
2018-07-27T01:57:15.514Z,6.53
2018-07-27T01:59:43.559Z,5.00
2018-07-27T02:02:11.631Z,4.90
2018-07-27T02:04:39.706Z,6.17
2018-07-27T02:07:07.800Z,7.20
2018-07-27T02:09:35.854Z,6.17
2018-07-27T02:12:03.915Z,6.77
2018-07-27T02:14:31.966Z,5.53
2018-07-27T02:17:00.035Z,6.87
2018-07-27T02:19:28.091Z,5.73
2018-07-27T02:21:56.183Z,5.60
2018-07-27T02:24:24.257Z,5.87
2018-07-27T02:26:52.611Z,8.10
2018-07-27T02:29:20.781Z,5.57
2018-07-27T02:31:48.850Z,5.23
2018-07-27T02:34:16.929Z,5.30
2018-07-27T02:36:45.302Z,5.80
2018-07-27T02:39:13.367Z,6.13
2018-07-27T02:41:41.463Z,5.60
2018-07-27T02:44:10.067Z,5.27
2018-07-27T02:46:38.342Z,5.30
2018-07-27T02:49:06.630Z,6.43
2018-07-27T02:51:34.896Z,6.03
2018-07-27T02:54:02.981Z,9.13
2018-07-27T02:56:30.839Z,5.77
2018-07-27T02:58:58.952Z,6.00
2018-07-27T03:01:27.010Z,6.77
2018-07-27T03:03:55.384Z,5.40
2018-07-27T03:06:23.506Z,6.07
2018-07-27T03:08:51.574Z,5.93
2018-07-27T03:11:19.783Z,5.93
2018-07-27T03:13:47.923Z,5.93
2018-07-27T03:16:15.995Z,6.67
2018-07-27T03:18:44.074Z,6.33
2018-07-27T03:21:12.196Z,5.73
2018-07-27T03:23:40.270Z,6.40
2018-07-27T03:26:08.339Z,6.17
2018-07-27T03:28:36.698Z,6.10
2018-07-27T03:31:04.802Z,6.53
2018-07-27T03:33:32.965Z,6.00
2018-07-27T03:36:01.031Z,5.53
2018-07-27T03:38:29.111Z,9.13
2018-07-27T03:40:57.174Z,5.37
2018-07-27T03:43:25.242Z,5.70
2018-07-27T03:45:53.324Z,7.50
2018-07-27T03:48:21.386Z,6.60
2018-07-27T03:50:49.485Z,6.23
2018-07-27T03:53:17.718Z,6.00
2018-07-27T03:55:45.798Z,8.73
2018-07-27T03:58:13.870Z,5.90
2018-07-27T04:00:42.034Z,6.30
2018-07-27T04:03:10.119Z,5.93
2018-07-27T04:05:38.191Z,6.00
2018-07-27T04:08:06.272Z,5.93
2018-07-27T04:10:34.415Z,6.30
2018-07-27T04:13:02.480Z,8.20
2018-07-27T04:15:30.574Z,5.60
2018-07-27T04:18:00.255Z,6.60
2018-07-27T04:20:28.490Z,8.07
2018-07-27T04:22:56.622Z,6.20
2018-07-27T04:25:24.696Z,6.93
2018-07-27T04:27:53.068Z,8.30
2018-07-27T04:30:21.276Z,5.93
2018-07-27T04:32:50.648Z,7.53
2018-07-27T04:35:19.666Z,5.00
2018-07-27T04:37:47.739Z,5.00
2018-07-27T04:40:15.992Z,6.20
2018-07-27T04:42:44.296Z,5.97
2018-07-27T04:45:12.406Z,6.70
2018-07-27T04:47:40.706Z,7.27
2018-07-27T04:50:08.953Z,7.33
2018-07-27T04:52:37.199Z,6.00
2018-07-27T04:55:05.274Z,6.17
2018-07-27T04:57:33.473Z,5.93
2018-07-27T05:00:01.687Z,6.97
2018-07-27T05:02:29.758Z,5.50
2018-07-27T05:04:57.820Z,6.00
2018-07-27T05:07:25.895Z,8.17
2018-07-27T05:09:53.950Z,6.20
2018-07-27T05:12:22.031Z,6.23
2018-07-27T05:14:50.087Z,10.90
2018-07-27T05:17:18.164Z,8.97
2018-07-27T05:19:46.666Z,7.47
2018-07-27T05:22:14.718Z,7.63
2018-07-27T05:24:42.852Z,10.03
2018-07-27T05:27:10.943Z,10.67
2018-07-27T05:29:39.010Z,7.37
2018-07-27T05:32:07.071Z,8.20
2018-07-27T05:34:35.151Z,10.07
2018-07-27T05:37:03.204Z,10.10
2018-07-27T05:39:31.367Z,6.80
2018-07-27T05:41:59.424Z,10.57
2018-07-27T05:44:27.485Z,8.47
2018-07-27T05:46:55.612Z,11.73
2018-07-27T05:49:24.654Z,10.73
2018-07-27T05:51:52.506Z,8.33
2018-07-27T05:54:20.486Z,5.97
2018-07-27T05:56:48.534Z,9.23
2018-07-27T05:59:16.609Z,5.60
2018-07-27T06:01:44.674Z,9.30
2018-07-27T06:04:12.745Z,5.77
2018-07-27T06:06:40.823Z,10.40
2018-07-27T06:09:09.939Z,7.73
2018-07-27T06:11:37.862Z,8.80
2018-07-27T06:14:05.962Z,13.83
2018-07-27T06:16:34.152Z,9.50
2018-07-27T06:19:02.046Z,8.07
2018-07-27T06:21:30.127Z,6.77
2018-07-27T06:23:58.234Z,7.30
2018-07-27T06:26:26.266Z,6.90
2018-07-27T06:28:54.354Z,6.40
2018-07-27T06:31:22.739Z,5.40
2018-07-27T06:33:50.829Z,10.70
2018-07-27T06:36:18.890Z,6.47
2018-07-27T06:38:46.986Z,4.53
2018-07-27T06:41:15.043Z,4.90
2018-07-27T06:43:43.097Z,5.60
2018-07-27T06:46:11.367Z,8.17
2018-07-27T06:48:39.458Z,7.63
2018-07-27T06:51:07.552Z,7.37
2018-07-27T06:53:35.610Z,8.77
2018-07-27T06:56:03.675Z,10.00
2018-07-27T06:58:31.754Z,10.37
2018-07-27T07:00:59.838Z,9.53
2018-07-27T07:03:28.256Z,8.23
2018-07-27T07:05:56.290Z,11.50
2018-07-27T07:08:24.390Z,6.47
2018-07-27T07:10:52.475Z,8.33
2018-07-27T07:13:20.874Z,15.57
2018-07-27T07:15:48.971Z,13.87
2018-07-27T07:18:17.044Z,9.03
2018-07-27T07:20:45.115Z,12.40
2018-07-27T07:23:13.186Z,5.73
2018-07-27T07:25:41.360Z,4.60
2018-07-27T07:28:09.371Z,5.03
2018-07-27T07:30:37.447Z,3.90
2018-07-27T07:33:05.603Z,5.03
2018-07-27T07:35:33.638Z,12.00
2018-07-27T07:38:01.708Z,8.63
2018-07-27T07:40:29.787Z,10.47
2018-07-27T07:42:57.927Z,9.47
2018-07-27T07:45:26.128Z,8.03
2018-07-27T07:47:54.479Z,9.73
2018-07-27T07:50:22.586Z,8.20
2018-07-27T07:52:51.062Z,11.97
2018-07-27T07:55:19.142Z,13.07
2018-07-27T07:57:47.446Z,9.67
2018-07-27T08:00:15.560Z,8.40
2018-07-27T08:02:44.048Z,9.37
2018-07-27T08:05:12.152Z,18.00
2018-07-27T08:07:40.234Z,9.93
2018-07-27T08:10:08.587Z,15.97
2018-07-27T08:12:36.666Z,21.03
2018-07-27T08:15:05.047Z,21.73
2018-07-27T08:17:33.137Z,22.33
2018-07-27T08:20:01.222Z,14.73
2018-07-27T08:22:29.303Z,20.83
2018-07-27T08:24:57.390Z,12.70
2018-07-27T08:27:25.451Z,10.30
2018-07-27T08:29:53.828Z,15.13
2018-07-27T08:32:21.886Z,15.87
2018-07-27T08:34:49.975Z,9.30
2018-07-27T08:37:18.030Z,13.10
2018-07-27T08:39:46.135Z,11.03
2018-07-27T08:42:14.182Z,12.93
2018-07-27T08:44:42.726Z,15.73
2018-07-27T08:47:10.816Z,9.87
2018-07-27T08:49:39.299Z,12.77
2018-07-27T08:52:07.361Z,9.87
2018-07-27T08:54:35.414Z,8.40
2018-07-27T08:57:03.382Z,6.63
2018-07-27T08:59:31.434Z,7.67
2018-07-27T09:01:59.500Z,10.20
2018-07-27T09:04:27.554Z,9.97
2018-07-27T09:06:55.661Z,9.37
2018-07-27T09:09:23.726Z,9.03
2018-07-27T09:11:51.816Z,8.77
2018-07-27T09:14:19.878Z,6.93
2018-07-27T09:16:47.950Z,9.67
2018-07-27T09:19:16.019Z,9.83
2018-07-27T09:21:44.266Z,9.50
2018-07-27T09:24:12.458Z,5.60
2018-07-27T09:26:40.772Z,4.43
2018-07-27T09:29:08.867Z,8.43
2018-07-27T09:31:36.971Z,7.40
2018-07-27T09:34:05.080Z,11.73
2018-07-27T09:36:33.091Z,8.27
2018-07-27T09:39:01.159Z,11.40
2018-07-27T09:41:29.443Z,8.77
2018-07-27T09:43:57.509Z,22.47
2018-07-27T09:46:25.592Z,7.80
2018-07-27T09:48:54.692Z,10.30
2018-07-27T09:51:23.974Z,7.10
2018-07-27T09:53:52.369Z,7.13
2018-07-27T09:56:20.471Z,8.10
2018-07-27T09:58:48.570Z,9.33
2018-07-27T10:01:21.779Z,8.70
2018-07-27T10:03:50.178Z,11.40
2018-07-27T10:06:18.247Z,5.73
2018-07-27T10:08:46.320Z,11.90
2018-07-27T10:11:14.386Z,10.97
2018-07-27T10:13:42.565Z,8.27
2018-07-27T10:16:10.668Z,9.37
2018-07-27T10:18:39.279Z,9.93
2018-07-27T10:21:08.690Z,6.70
2018-07-27T10:23:36.759Z,10.87
2018-07-27T10:26:05.355Z,11.70
2018-07-27T10:28:34.175Z,7.20
2018-07-27T10:31:02.254Z,8.90
2018-07-27T10:33:30.307Z,6.43
2018-07-27T10:35:58.374Z,5.53
2018-07-27T10:38:26.432Z,6.97
2018-07-27T10:40:54.726Z,6.73
2018-07-27T10:43:22.963Z,7.60
2018-07-27T10:45:51.055Z,6.00
2018-07-27T10:48:19.155Z,7.77
2018-07-27T10:50:47.302Z,4.73
2018-07-27T10:53:15.363Z,9.70
2018-07-27T10:55:43.438Z,7.73
2018-07-27T10:58:11.527Z,11.17
2018-07-27T11:00:39.583Z,5.60
2018-07-27T11:03:07.758Z,6.03
2018-07-27T11:05:35.872Z,10.23
2018-07-27T11:08:03.954Z,9.20
2018-07-27T11:10:32.039Z,9.17
2018-07-27T11:13:00.106Z,7.20
2018-07-27T11:15:28.171Z,6.50
2018-07-27T11:17:56.317Z,6.67
2018-07-27T11:20:24.315Z,7.63
2018-07-27T11:22:52.391Z,5.23
2018-07-27T11:25:20.452Z,6.27
2018-07-27T11:27:48.525Z,7.20
2018-07-27T11:30:16.610Z,8.80
2018-07-27T11:32:44.730Z,7.47
2018-07-27T11:35:12.820Z,5.83
2018-07-27T11:37:41.059Z,6.53
2018-07-27T11:40:09.234Z,6.13
2018-07-27T11:42:37.345Z,4.17
2018-07-27T11:45:05.629Z,5.43
2018-07-27T11:47:33.703Z,5.37
2018-07-27T11:50:01.787Z,8.13
2018-07-27T11:52:29.858Z,7.27
2018-07-27T11:54:58.106Z,6.97
2018-07-27T11:57:26.182Z,6.67
2018-07-27T11:59:54.254Z,6.93
2018-07-27T12:02:22.383Z,9.97
2018-07-27T12:04:50.462Z,9.00
2018-07-27T12:07:18.668Z,10.47
2018-07-27T12:09:46.743Z,6.67
2018-07-27T12:12:14.826Z,6.43
2018-07-27T12:14:43.031Z,6.20
2018-07-27T12:17:10.959Z,3.70
2018-07-27T12:19:39.014Z,5.00
2018-07-27T12:22:07.106Z,7.23
2018-07-27T12:24:35.162Z,6.33
2018-07-27T12:27:03.248Z,7.07
2018-07-27T12:29:31.283Z,5.20
2018-07-27T12:31:59.347Z,4.50
2018-07-27T12:34:27.420Z,4.80
2018-07-27T12:36:55.470Z,6.10
2018-07-27T12:39:23.538Z,5.00
2018-07-27T12:41:51.606Z,4.97
2018-07-27T12:44:19.689Z,3.73
2018-07-27T12:46:47.746Z,3.33
2018-07-27T12:49:15.834Z,4.10
2018-07-27T12:51:43.886Z,5.00
2018-07-27T12:54:11.978Z,5.27
2018-07-27T12:56:40.099Z,3.83
2018-07-27T12:59:08.177Z,4.70
2018-07-27T13:01:36.227Z,3.10
2018-07-27T13:04:04.602Z,4.43
2018-07-27T13:06:32.659Z,3.53
2018-07-27T13:09:00.730Z,3.93
2018-07-27T13:11:28.783Z,3.83
2018-07-27T13:13:56.842Z,3.33
2018-07-27T13:16:24.895Z,2.97
2018-07-27T13:18:52.969Z,4.27
2018-07-27T13:21:21.024Z,4.13
2018-07-27T13:23:56.836Z,3.07
2018-07-27T13:26:24.918Z,3.53
2018-07-27T13:28:52.979Z,4.37
2018-07-27T13:31:51.723Z,5.77
2018-07-27T13:37:05.182Z,3.23
2018-07-27T13:39:33.880Z,3.23
2018-07-27T13:42:02.885Z,3.27
2018-07-27T13:44:32.311Z,4.47
2018-07-27T13:47:00.871Z,3.30
2018-07-27T13:49:29.250Z,3.57
2018-07-27T13:51:57.953Z,4.33
2018-07-27T13:54:26.243Z,3.10
2018-07-27T13:56:54.296Z,3.30
2018-07-27T13:59:22.358Z,3.27
2018-07-27T14:01:50.514Z,3.80
2018-07-27T14:04:18.580Z,2.90
2018-07-27T14:06:48.295Z,2.73
2018-07-27T14:09:16.394Z,3.33
2018-07-27T14:11:44.479Z,3.17
2018-07-27T14:14:12.871Z,3.50
2018-07-27T14:16:41.500Z,3.53
2018-07-27T14:19:09.884Z,3.40
2018-07-27T14:21:38.066Z,2.70
2018-07-27T14:24:06.284Z,4.17
2018-07-27T14:26:34.334Z,3.93
2018-07-27T14:29:02.410Z,4.03
2018-07-27T14:31:30.514Z,3.60
2018-07-27T14:33:58.594Z,3.70
2018-07-27T14:36:26.647Z,2.90
2018-07-27T14:38:54.711Z,3.00
2018-07-27T14:41:23.066Z,2.60
2018-07-27T14:43:51.515Z,3.27
2018-07-27T14:46:19.587Z,3.17
2018-07-27T14:48:47.670Z,3.03
2018-07-27T14:51:15.723Z,2.97
2018-07-27T14:53:43.830Z,3.00
2018-07-27T14:56:11.865Z,3.83
2018-07-27T14:58:40.571Z,3.17
2018-07-27T15:01:08.938Z,3.07
2018-07-27T15:03:37.309Z,3.10
2018-07-27T15:06:05.579Z,2.53
2018-07-27T15:08:33.654Z,3.60
2018-07-27T15:11:02.031Z,2.93
2018-07-27T15:13:30.078Z,3.10
2018-07-27T15:15:58.151Z,3.13
2018-07-27T15:18:26.234Z,5.43
2018-07-27T15:20:54.290Z,3.63
2018-07-27T15:23:22.350Z,3.23
2018-07-27T15:25:50.418Z,3.30
2018-07-27T15:28:18.474Z,3.00
2018-07-27T15:30:46.547Z,3.43
2018-07-27T15:33:14.630Z,4.87
2018-07-27T15:35:42.711Z,3.37
2018-07-27T15:38:10.762Z,3.57
2018-07-27T15:40:38.835Z,3.40
2018-07-27T15:43:06.894Z,3.30
2018-07-27T15:45:34.974Z,3.00
2018-07-27T15:48:03.035Z,3.37
2018-07-27T15:50:31.123Z,3.33
2018-07-27T15:53:00.063Z,3.17
2018-07-27T15:55:28.163Z,3.23
2018-07-27T15:57:56.532Z,3.57
2018-07-27T16:00:24.587Z,3.87
2018-07-27T16:02:52.691Z,4.47
2018-07-27T16:05:20.762Z,3.67
2018-07-27T16:07:49.027Z,3.37
2018-07-27T16:10:17.126Z,6.03
2018-07-27T16:12:45.190Z,3.40
2018-07-27T16:15:13.282Z,3.77
2018-07-27T16:17:41.598Z,3.30
2018-07-27T16:20:09.670Z,3.20
2018-07-27T16:22:37.741Z,2.97
2018-07-27T16:25:05.887Z,3.40
2018-07-27T16:27:34.183Z,3.73
2018-07-27T16:30:02.282Z,3.30
2018-07-27T16:32:30.377Z,3.23
2018-07-27T16:34:58.471Z,4.63
2018-07-27T16:37:26.546Z,3.20
2018-07-27T16:39:54.634Z,2.97
2018-07-27T16:42:22.506Z,3.57
2018-07-27T16:44:50.607Z,3.40
2018-07-27T16:47:18.662Z,2.97
2018-07-27T16:49:46.737Z,3.77
2018-07-27T16:52:14.803Z,4.37
2018-07-27T16:54:42.906Z,3.70
2018-07-27T16:57:10.978Z,3.93
2018-07-27T16:59:39.073Z,4.23
2018-07-27T17:02:07.166Z,2.93
2018-07-27T17:04:35.326Z,3.60
2018-07-27T17:07:03.893Z,3.50
2018-07-27T17:09:31.946Z,3.07
2018-07-27T17:12:00.055Z,5.00
2018-07-27T17:14:28.097Z,3.30
2018-07-27T17:16:56.198Z,2.90
2018-07-27T17:19:24.255Z,5.90
2018-07-27T17:21:52.315Z,3.27
2018-07-27T17:24:20.365Z,3.60
2018-07-27T17:26:48.434Z,3.50
2018-07-27T17:29:16.494Z,2.90
2018-07-27T17:31:44.558Z,3.17
2018-07-27T17:34:12.615Z,3.20
2018-07-27T17:36:40.706Z,3.30
2018-07-27T17:39:10.094Z,2.83
2018-07-27T17:41:38.518Z,6.10
2018-07-27T17:44:06.990Z,3.50
2018-07-27T17:46:35.071Z,3.20
2018-07-27T17:49:03.131Z,3.23
2018-07-27T17:51:31.202Z,3.43
2018-07-27T17:53:59.290Z,3.77
2018-07-27T17:56:27.391Z,3.13
2018-07-27T17:58:55.470Z,3.50
2018-07-27T18:01:23.898Z,7.27
2018-07-27T18:03:51.950Z,3.03
2018-07-27T18:06:20.031Z,3.97
2018-07-27T18:08:48.102Z,4.70
2018-07-27T18:11:16.183Z,6.00
2018-07-27T18:13:44.230Z,3.03
2018-07-27T18:16:12.294Z,3.87
2018-07-27T18:18:40.363Z,3.80
2018-07-27T18:21:08.874Z,4.37
2018-07-27T18:23:37.246Z,4.73
2018-07-27T18:26:05.333Z,3.73
2018-07-27T18:28:33.387Z,4.77
2018-07-27T18:31:01.455Z,4.07
2018-07-27T18:33:29.534Z,5.33
2018-07-27T18:35:57.655Z,3.17
2018-07-27T18:38:25.730Z,3.60
2018-07-27T18:40:53.787Z,8.93
2018-07-27T18:43:21.856Z,4.17
2018-07-27T18:45:49.919Z,3.33
2018-07-27T18:48:18.023Z,3.47
2018-07-27T18:50:46.386Z,3.30
2018-07-27T18:53:14.456Z,3.57
2018-07-27T18:55:42.527Z,4.57
2018-07-27T18:58:10.590Z,5.40
2018-07-27T19:00:38.654Z,6.60
2018-07-27T19:03:06.931Z,5.03
2018-07-27T19:05:34.995Z,6.27
2018-07-27T19:08:03.175Z,6.40
2018-07-27T19:10:31.748Z,4.87
2018-07-27T19:12:59.830Z,6.93
2018-07-27T19:15:27.942Z,6.97
2018-07-27T19:17:56.023Z,6.60
2018-07-27T19:20:24.089Z,5.53
2018-07-27T19:22:52.477Z,4.97
2018-07-27T19:25:20.570Z,5.00
2018-07-27T19:27:48.667Z,5.80
2018-07-27T19:30:16.734Z,7.63
2018-07-27T19:32:44.810Z,8.77
2018-07-27T19:35:12.875Z,6.57
2018-07-27T19:37:40.943Z,4.83
2018-07-27T19:40:09.023Z,7.60
2018-07-27T19:42:37.190Z,5.83
2018-07-27T19:45:05.751Z,10.90
2018-07-27T19:47:33.841Z,5.67
2018-07-27T19:50:01.902Z,6.43
2018-07-27T19:52:29.970Z,9.07
2018-07-27T19:54:58.334Z,7.67
2018-07-27T19:57:26.406Z,7.50
2018-07-27T19:59:54.478Z,9.00
2018-07-27T20:02:22.731Z,5.00
2018-07-27T20:04:50.819Z,5.73
2018-07-27T20:07:18.903Z,5.37
2018-07-27T20:09:46.990Z,4.97
2018-07-27T20:12:15.088Z,7.87
2018-07-27T20:14:43.154Z,5.87
2018-07-27T20:17:11.226Z,11.27
2018-07-27T20:19:39.305Z,5.83
2018-07-27T20:22:07.403Z,6.60
2018-07-27T20:24:35.482Z,7.93
2018-07-27T20:27:03.581Z,5.43
2018-07-27T20:29:31.674Z,5.00
2018-07-27T20:31:59.734Z,5.33
2018-07-27T20:34:27.806Z,5.27
2018-07-27T20:36:55.899Z,4.83
2018-07-27T20:39:23.967Z,5.30
2018-07-27T20:41:52.055Z,6.67
2018-07-27T20:44:20.122Z,7.07
2018-07-27T20:46:48.195Z,5.47
2018-07-27T20:49:16.271Z,5.87
2018-07-27T20:51:44.336Z,5.07
2018-07-27T20:54:12.407Z,5.50
2018-07-27T20:56:40.666Z,4.57
2018-07-27T20:59:08.739Z,5.23
2018-07-27T21:01:36.803Z,4.60
2018-07-27T21:04:04.949Z,5.07
2018-07-27T21:06:32.966Z,5.87
2018-07-27T21:09:01.037Z,4.90
2018-07-27T21:11:29.111Z,5.60
2018-07-27T21:13:57.167Z,5.37
2018-07-27T21:16:25.227Z,5.37
2018-07-27T21:18:54.582Z,5.00
2018-07-27T21:21:22.662Z,5.00
2018-07-27T21:23:50.729Z,6.20
2018-07-27T21:26:18.786Z,4.90
2018-07-27T21:28:46.847Z,4.90
2018-07-27T21:31:14.911Z,10.60
2018-07-27T21:33:43.002Z,5.80
2018-07-27T21:36:11.067Z,4.60
2018-07-27T21:38:39.152Z,4.47
2018-07-27T21:41:07.203Z,7.20
2018-07-27T21:43:35.291Z,4.67
2018-07-27T21:46:03.364Z,4.63
2018-07-27T21:48:31.540Z,4.73
2018-07-27T21:50:59.774Z,5.27
2018-07-27T21:53:27.863Z,4.97
2018-07-27T21:55:55.918Z,4.57
2018-07-27T21:58:23.987Z,4.53
2018-07-27T22:00:52.051Z,4.20
2018-07-27T22:03:20.110Z,4.40
2018-07-27T22:05:48.174Z,4.97
2018-07-27T22:08:16.287Z,4.07
2018-07-27T22:10:44.343Z,5.20
2018-07-27T22:13:12.446Z,6.40
2018-07-27T22:15:40.477Z,4.80
2018-07-27T22:18:08.526Z,4.20
2018-07-27T22:20:36.594Z,4.33
2018-07-27T22:23:04.662Z,5.60
2018-07-27T22:25:32.735Z,4.83
2018-07-27T22:28:00.858Z,4.83
2018-07-27T22:30:28.959Z,4.20
2018-07-27T22:32:57.014Z,6.90
2018-07-27T22:35:25.084Z,5.13
2018-07-27T22:37:53.142Z,4.53
2018-07-27T22:40:21.206Z,5.00
2018-07-27T22:42:49.263Z,4.27
2018-07-27T22:45:17.559Z,5.80
2018-07-27T22:47:45.626Z,4.37
2018-07-27T22:50:13.683Z,5.17
2018-07-27T22:52:41.822Z,4.40
2018-07-27T22:55:11.473Z,5.83
2018-07-27T22:57:40.581Z,4.10
2018-07-27T23:00:13.822Z,4.50
2018-07-27T23:02:42.701Z,4.73
2018-07-27T23:05:11.403Z,4.93
2018-07-27T23:07:39.475Z,4.73
2018-07-27T23:10:08.577Z,4.30
2018-07-27T23:12:36.634Z,4.07
2018-07-27T23:15:06.209Z,4.70
2018-07-27T23:17:34.482Z,6.10
2018-07-27T23:20:02.731Z,4.43
2018-07-27T23:22:30.857Z,5.50
2018-07-27T23:24:58.958Z,4.20
2018-07-27T23:27:27.034Z,4.50
2018-07-27T23:29:55.138Z,4.20
2018-07-27T23:32:23.498Z,3.93
2018-07-27T23:34:51.586Z,5.37
2018-07-27T23:37:19.676Z,4.07
2018-07-27T23:39:47.794Z,4.00
2018-07-27T23:42:15.897Z,4.73
2018-07-27T23:44:43.984Z,4.00
2018-07-27T23:47:12.171Z,5.57
2018-07-27T23:49:40.270Z,4.43
2018-07-27T23:52:08.472Z,4.60
2018-07-27T23:54:36.558Z,4.00
2018-07-27T23:57:04.835Z,4.47
2018-07-27T23:59:32.910Z,4.53
